createdAt,value
2019-03-08T00:01:34.223Z,3.17
2019-03-08T00:04:00.847Z,2.90
2019-03-08T00:06:27.775Z,3.50
2019-03-08T00:08:54.436Z,3.07
2019-03-08T00:11:21.142Z,4.00
2019-03-08T00:13:48.335Z,4.03
2019-03-08T00:16:16.127Z,4.40
2019-03-08T00:18:42.875Z,4.37
2019-03-08T00:21:09.843Z,4.63
2019-03-08T00:23:36.828Z,4.37
2019-03-08T00:26:04.439Z,4.50
2019-03-08T00:28:32.331Z,4.90
2019-03-08T00:30:59.364Z,4.87
2019-03-08T00:33:26.320Z,5.23
2019-03-08T00:35:57.106Z,4.17
2019-03-08T00:38:25.875Z,5.50
2019-03-08T00:40:54.503Z,5.10
2019-03-08T00:43:24.791Z,5.80
2019-03-08T00:45:51.427Z,4.83
2019-03-08T00:48:18.468Z,6.57
2019-03-08T00:50:45.126Z,5.27
2019-03-08T00:53:13.251Z,5.13
2019-03-08T00:55:40.415Z,5.63
2019-03-08T00:58:07.154Z,4.90
2019-03-08T01:00:33.879Z,6.07
2019-03-08T01:03:00.903Z,4.97
2019-03-08T01:05:30.278Z,5.53
2019-03-08T01:07:57.312Z,4.67
2019-03-08T01:10:24.231Z,5.80
2019-03-08T01:12:52.167Z,5.30
2019-03-08T01:15:19.619Z,5.00
2019-03-08T01:17:46.361Z,4.77
2019-03-08T01:20:13.717Z,4.23
2019-03-08T01:22:40.582Z,4.10
2019-03-08T01:25:08.943Z,3.47
2019-03-08T01:27:36.187Z,3.27
2019-03-08T01:30:03.963Z,4.10
2019-03-08T01:32:30.999Z,3.53
2019-03-08T01:34:58.558Z,3.13
2019-03-08T01:37:26.831Z,2.50
2019-03-08T01:39:53.807Z,3.75
2019-03-08T01:42:20.551Z,2.67
2019-03-08T01:44:47.217Z,2.45
2019-03-08T01:47:13.956Z,2.93
2019-03-08T01:49:40.787Z,3.02
2019-03-08T01:52:09.843Z,2.80
2019-03-08T01:54:37.227Z,3.17
2019-03-08T01:57:05.077Z,2.70
2019-03-08T01:59:32.119Z,4.20
2019-03-08T02:01:59.477Z,3.40
2019-03-08T02:04:28.423Z,3.00
2019-03-08T02:06:55.400Z,3.17
2019-03-08T02:09:22.443Z,2.70
2019-03-08T02:11:50.407Z,2.43
2019-03-08T02:14:17.358Z,2.13
2019-03-08T02:16:46.759Z,2.00
2019-03-08T02:19:14.211Z,2.30
2019-03-08T02:21:42.499Z,2.13
2019-03-08T02:24:09.463Z,2.00
2019-03-08T02:26:36.483Z,2.55
2019-03-08T02:29:06.091Z,2.33
2019-03-08T02:31:33.779Z,1.90
2019-03-08T02:34:01.927Z,2.30
2019-03-08T02:36:30.270Z,1.97
2019-03-08T02:38:59.399Z,2.10
2019-03-08T02:41:26.380Z,1.80
2019-03-08T02:43:54.391Z,1.85
2019-03-08T02:46:21.442Z,1.93
2019-03-08T02:48:49.471Z,3.05
2019-03-08T02:51:17.456Z,2.00
2019-03-08T02:53:44.182Z,3.02
2019-03-08T02:56:10.860Z,2.70
2019-03-08T02:58:38.184Z,3.20
2019-03-08T03:01:04.935Z,2.97
2019-03-08T03:03:31.895Z,2.40
2019-03-08T03:06:00.247Z,2.47
2019-03-08T03:08:27.355Z,2.35
2019-03-08T03:10:54.347Z,2.27
2019-03-08T03:13:20.971Z,2.58
2019-03-08T03:15:49.407Z,1.50
2019-03-08T03:18:17.143Z,1.20
2019-03-08T03:20:43.784Z,1.70
2019-03-08T03:23:10.699Z,1.60
2019-03-08T03:25:39.713Z,0.80
2019-03-08T03:28:07.301Z,1.30
2019-03-08T03:30:34.755Z,1.10
2019-03-08T03:33:02.420Z,1.23
2019-03-08T03:35:31.111Z,1.20
2019-03-08T03:37:57.846Z,1.20
2019-03-08T03:40:25.419Z,1.67
2019-03-08T03:42:52.554Z,1.77
2019-03-08T03:45:19.912Z,1.40
2019-03-08T03:47:49.729Z,2.13
2019-03-08T03:50:18.461Z,2.63
2019-03-08T03:52:45.539Z,2.80
2019-03-08T03:55:12.995Z,3.77
2019-03-08T03:57:40.010Z,3.27
2019-03-08T04:00:07.923Z,4.03
2019-03-08T04:02:34.660Z,4.07
2019-03-08T04:05:01.674Z,4.07
2019-03-08T04:07:28.694Z,4.37
2019-03-08T04:09:55.430Z,4.87
2019-03-08T04:12:22.369Z,4.23
2019-03-08T04:14:50.543Z,4.40
2019-03-08T04:17:17.286Z,5.50
2019-03-08T04:19:45.055Z,5.00
2019-03-08T04:22:12.478Z,4.97
2019-03-08T04:24:39.763Z,5.63
2019-03-08T04:27:07.227Z,5.80
2019-03-08T04:29:38.840Z,4.67
2019-03-08T04:32:06.195Z,5.30
2019-03-08T04:34:33.659Z,5.77
2019-03-08T04:37:00.331Z,5.93
2019-03-08T04:39:28.676Z,5.40
2019-03-08T04:41:55.719Z,4.87
2019-03-08T04:44:22.379Z,5.07
2019-03-08T04:46:49.611Z,5.50
2019-03-08T04:49:18.398Z,5.33
2019-03-08T04:51:45.854Z,4.93
2019-03-08T04:54:12.690Z,4.30
2019-03-08T04:56:39.642Z,4.00
2019-03-08T04:59:06.435Z,4.43
2019-03-08T05:01:33.122Z,3.77
2019-03-08T05:04:02.346Z,3.53
2019-03-08T05:06:30.055Z,3.97
2019-03-08T05:08:57.839Z,3.80
2019-03-08T05:11:26.054Z,4.20
2019-03-08T05:13:58.583Z,4.50
2019-03-08T05:16:25.326Z,3.57
2019-03-08T05:18:52.411Z,2.87
2019-03-08T05:21:19.062Z,4.07
2019-03-08T05:23:45.695Z,3.57
2019-03-08T05:26:13.932Z,4.30
2019-03-08T05:28:43.561Z,3.13
2019-03-08T05:31:14.790Z,4.90
2019-03-08T05:33:44.495Z,3.50
2019-03-08T05:36:11.854Z,3.97
2019-03-08T05:38:40.639Z,4.10
2019-03-08T05:41:07.892Z,4.97
2019-03-08T05:43:35.554Z,3.60
2019-03-08T05:46:02.599Z,5.23
2019-03-08T05:48:30.463Z,3.70
2019-03-08T05:50:57.435Z,4.40
2019-03-08T05:53:24.867Z,4.10
2019-03-08T05:55:51.727Z,3.43
2019-03-08T05:58:19.895Z,4.13
2019-03-08T06:00:46.932Z,4.17
2019-03-08T06:03:13.888Z,3.27
2019-03-08T06:05:40.995Z,2.70
2019-03-08T06:08:08.314Z,2.50
2019-03-08T06:10:37.039Z,2.37
2019-03-08T06:13:04.304Z,2.40
2019-03-08T06:15:31.050Z,2.20
2019-03-08T06:17:58.203Z,1.90
2019-03-08T06:20:26.982Z,1.70
2019-03-08T06:22:53.619Z,1.40
2019-03-08T06:25:25.192Z,2.00
2019-03-08T06:27:53.258Z,1.05
2019-03-08T06:30:20.303Z,1.75
2019-03-08T06:32:47.967Z,1.70
2019-03-08T06:35:15.111Z,1.17
2019-03-08T06:37:42.398Z,1.35
2019-03-08T06:40:09.563Z,1.77
2019-03-08T06:42:36.807Z,2.90
2019-03-08T06:45:04.839Z,1.57
2019-03-08T06:47:32.811Z,2.33
2019-03-08T06:50:00.674Z,2.42
2019-03-08T06:52:27.332Z,2.72
2019-03-08T06:54:54.359Z,4.25
2019-03-08T06:57:21.918Z,3.90
2019-03-08T07:00:00.435Z,4.40
2019-03-08T07:02:30.298Z,4.85
2019-03-08T07:04:59.231Z,4.25
2019-03-08T07:07:29.051Z,4.90
2019-03-08T07:09:56.717Z,5.03
2019-03-08T07:12:23.971Z,4.58
2019-03-08T07:14:52.035Z,4.35
2019-03-08T07:17:20.511Z,6.22
2019-03-08T07:20:07.061Z,5.45
2019-03-08T07:22:51.570Z,4.87
2019-03-08T07:25:38.492Z,6.92
2019-03-08T07:28:25.096Z,4.55
2019-03-08T07:31:20.268Z,6.30
2019-03-08T07:34:01.378Z,6.58
2019-03-08T07:36:45.436Z,4.47
2019-03-08T07:39:32.751Z,6.65
2019-03-08T07:42:32.726Z,7.45
2019-03-08T07:45:12.899Z,5.65
2019-03-08T07:47:57.824Z,6.35
2019-03-08T07:50:35.381Z,5.58
2019-03-08T07:53:12.874Z,4.60
2019-03-08T07:55:49.145Z,6.90
2019-03-08T07:58:26.831Z,3.85
2019-03-08T08:01:19.379Z,5.50
2019-03-08T08:03:52.890Z,6.65
2019-03-08T08:06:37.699Z,7.20
2019-03-08T08:09:15.447Z,7.87
2019-03-08T08:12:04.919Z,5.28
2019-03-08T08:14:52.207Z,6.00
2019-03-08T08:17:32.179Z,6.30
2019-03-08T08:20:36.819Z,4.53
2019-03-08T08:23:34.080Z,5.97
2019-03-08T08:26:10.535Z,4.60
2019-03-08T08:28:56.127Z,4.60
2019-03-08T08:31:42.444Z,5.30
2019-03-08T08:34:30.145Z,6.37
2019-03-08T08:37:19.619Z,4.85
2019-03-08T08:39:57.482Z,3.80
2019-03-08T08:42:47.025Z,3.37
2019-03-08T08:45:33.259Z,4.90
2019-03-08T08:48:18.975Z,5.55
2019-03-08T08:51:12.071Z,7.70
2019-03-08T08:53:58.231Z,6.57
2019-03-08T08:56:50.474Z,3.23
2019-03-08T08:59:40.187Z,4.50
2019-03-08T09:02:25.211Z,4.07
2019-03-08T09:05:01.265Z,4.70
2019-03-08T09:07:37.845Z,6.00
2019-03-08T09:10:24.068Z,4.30
2019-03-08T09:12:59.785Z,5.40
2019-03-08T09:15:44.859Z,4.00
2019-03-08T09:18:25.178Z,5.07
2019-03-08T09:20:58.749Z,4.70
2019-03-08T09:23:38.870Z,3.90
2019-03-08T09:26:18.908Z,4.50
2019-03-08T09:29:05.151Z,4.73
2019-03-08T09:31:54.704Z,3.30
2019-03-08T09:34:33.472Z,5.07
2019-03-08T09:37:25.815Z,4.83
2019-03-08T09:40:18.119Z,3.03
2019-03-08T09:43:07.593Z,4.13
2019-03-08T09:45:45.631Z,3.37
2019-03-08T09:48:24.533Z,4.10
2019-03-08T09:51:24.816Z,4.60
2019-03-08T09:54:01.527Z,3.03
2019-03-08T09:56:40.804Z,5.80
2019-03-08T09:59:30.031Z,3.05
2019-03-08T10:02:12.872Z,3.30
2019-03-08T10:05:02.012Z,3.83
2019-03-08T10:07:36.052Z,4.17
2019-03-08T10:10:23.279Z,3.20
2019-03-08T10:13:08.394Z,4.80
2019-03-08T10:15:39.327Z,4.10
2019-03-08T10:18:26.446Z,4.43
2019-03-08T10:21:12.635Z,3.60
2019-03-08T10:23:58.019Z,3.90
2019-03-08T10:26:48.646Z,4.17
2019-03-08T10:29:41.219Z,3.23
2019-03-08T10:32:26.470Z,3.70
2019-03-08T10:35:23.247Z,2.93
2019-03-08T10:38:04.985Z,3.00
2019-03-08T10:40:50.612Z,4.30
2019-03-08T10:43:32.827Z,3.87
2019-03-08T10:46:17.742Z,4.57
2019-03-08T10:49:14.810Z,3.40
2019-03-08T10:51:51.807Z,4.13
2019-03-08T10:54:27.803Z,5.43
2019-03-08T10:57:15.647Z,4.93
2019-03-08T10:59:48.235Z,4.37
2019-03-08T11:02:42.575Z,4.43
2019-03-08T11:05:31.631Z,3.73
2019-03-08T11:08:16.903Z,3.57
2019-03-08T11:11:06.261Z,3.47
2019-03-08T11:14:05.620Z,4.50
2019-03-08T11:16:52.130Z,4.70
2019-03-08T11:19:36.999Z,3.77
2019-03-08T11:22:25.328Z,5.10
2019-03-08T11:25:08.051Z,3.67
2019-03-08T11:27:51.991Z,3.10
2019-03-08T11:30:26.281Z,5.80
2019-03-08T11:33:22.812Z,3.40
2019-03-08T11:35:58.370Z,3.40
2019-03-08T11:38:35.324Z,5.00
2019-03-08T11:41:17.581Z,3.20
2019-03-08T11:44:02.983Z,3.70
2019-03-08T11:46:35.734Z,4.20
2019-03-08T11:49:20.814Z,3.60
2019-03-08T11:52:05.776Z,3.83
2019-03-08T11:54:52.878Z,3.53
2019-03-08T11:57:36.983Z,3.80
2019-03-08T12:00:24.234Z,3.00
2019-03-08T12:03:03.759Z,4.80
2019-03-08T12:05:52.808Z,2.87
2019-03-08T12:08:52.185Z,3.43
2019-03-08T12:11:51.495Z,3.57
2019-03-08T12:14:46.736Z,2.97
2019-03-08T12:17:32.364Z,3.50
2019-03-08T12:20:22.556Z,2.67
2019-03-08T12:23:08.833Z,3.00
2019-03-08T12:25:47.115Z,3.17
2019-03-08T12:28:32.799Z,2.60
2019-03-08T12:31:14.031Z,2.00
2019-03-08T12:34:02.484Z,3.83
2019-03-08T12:36:58.071Z,2.90
2019-03-08T12:39:36.555Z,3.17
2019-03-08T12:42:22.744Z,3.10
2019-03-08T12:45:08.095Z,3.87
2019-03-08T12:47:53.451Z,3.30
2019-03-08T12:50:37.223Z,3.70
2019-03-08T12:53:22.123Z,4.80
2019-03-08T12:56:07.975Z,3.17
2019-03-08T12:58:47.751Z,4.00
2019-03-08T13:01:34.314Z,2.27
2019-03-08T13:04:14.736Z,4.28
2019-03-08T13:07:02.051Z,3.40
2019-03-08T13:10:01.503Z,2.40
2019-03-08T13:12:30.992Z,2.87
2019-03-08T13:14:58.157Z,2.77
2019-03-08T13:17:30.631Z,3.50
2019-03-08T13:19:57.660Z,2.80
2019-03-08T13:22:25.966Z,2.43
2019-03-08T13:24:52.911Z,2.10
2019-03-08T13:27:20.346Z,2.03
2019-03-08T13:29:57.241Z,2.90
2019-03-08T13:32:24.009Z,3.00
2019-03-08T13:34:53.438Z,2.93
2019-03-08T13:37:20.170Z,2.10
2019-03-08T13:39:51.415Z,2.53
2019-03-08T13:42:20.144Z,1.80
2019-03-08T13:44:47.997Z,2.67
2019-03-08T13:47:14.796Z,2.87
2019-03-08T13:49:42.096Z,2.10
2019-03-08T13:52:08.819Z,2.50
2019-03-08T13:54:35.570Z,2.07
2019-03-08T13:57:02.175Z,4.67
2019-03-08T13:59:29.858Z,2.37
2019-03-08T14:02:02.558Z,2.60
2019-03-08T14:04:29.185Z,2.53
2019-03-08T14:06:55.822Z,1.90
2019-03-08T14:09:22.870Z,2.10
2019-03-08T14:11:51.355Z,3.00
2019-03-08T14:14:18.812Z,1.47
2019-03-08T14:16:46.787Z,2.20
2019-03-08T14:19:16.577Z,1.70
2019-03-08T14:21:43.772Z,2.20
2019-03-08T14:24:11.120Z,1.53
2019-03-08T14:26:42.755Z,1.53
2019-03-08T14:29:10.776Z,2.03
2019-03-08T14:32:01.118Z,2.17
2019-03-08T14:34:27.993Z,1.90
2019-03-08T14:36:54.924Z,1.60
2019-03-08T14:39:21.954Z,1.57
2019-03-08T14:42:11.848Z,1.80
2019-03-08T14:45:03.471Z,2.03
2019-03-08T14:47:48.219Z,2.00
2019-03-08T14:50:14.926Z,2.33
2019-03-08T14:52:42.600Z,2.87
2019-03-08T14:55:11.412Z,2.70
2019-03-08T14:57:38.180Z,1.30
2019-03-08T15:00:06.384Z,2.57
2019-03-08T15:02:34.039Z,2.40
2019-03-08T15:05:10.722Z,2.43
2019-03-08T15:07:29.917Z,2.00
2019-03-08T15:09:56.983Z,1.80
2019-03-08T15:12:23.754Z,2.17
2019-03-08T15:14:52.247Z,2.17
2019-03-08T15:17:19.268Z,3.13
2019-03-08T15:19:45.931Z,1.47
2019-03-08T15:22:13.728Z,1.97
2019-03-08T15:24:41.515Z,1.37
2019-03-08T15:27:08.294Z,1.60
2019-03-08T15:29:36.332Z,1.67
2019-03-08T15:32:08.767Z,3.03
2019-03-08T15:34:35.415Z,2.27
2019-03-08T15:37:02.408Z,1.70
2019-03-08T15:39:29.421Z,2.40
2019-03-08T15:41:58.604Z,1.40
2019-03-08T15:44:28.193Z,2.23
2019-03-08T15:46:55.742Z,1.47
2019-03-08T15:49:26.659Z,2.70
2019-03-08T15:51:54.284Z,1.80
2019-03-08T15:54:23.707Z,1.77
2019-03-08T15:56:51.660Z,1.20
2019-03-08T15:59:20.664Z,1.90
2019-03-08T16:01:48.231Z,2.47
2019-03-08T16:04:16.293Z,2.20
2019-03-08T16:06:45.262Z,2.70
2019-03-08T16:09:13.370Z,1.80
2019-03-08T16:11:40.719Z,1.53
2019-03-08T16:14:09.050Z,1.73
2019-03-08T16:16:36.348Z,2.10
2019-03-08T16:19:07.584Z,2.37
2019-03-08T16:21:35.659Z,1.53
2019-03-08T16:24:02.725Z,1.57
2019-03-08T16:26:29.871Z,1.90
2019-03-08T16:28:57.606Z,1.87
2019-03-08T16:31:34.288Z,1.90
2019-03-08T16:34:01.314Z,1.85
2019-03-08T16:36:54.903Z,1.20
2019-03-08T16:39:30.725Z,3.12
2019-03-08T16:42:16.947Z,1.85
2019-03-08T16:45:04.382Z,1.95
2019-03-08T16:47:50.122Z,1.75
2019-03-08T16:50:28.358Z,2.70
2019-03-08T16:53:09.967Z,2.20
2019-03-08T16:56:04.495Z,2.30
2019-03-08T16:58:56.886Z,2.77
2019-03-08T17:01:59.432Z,3.70
2019-03-08T17:04:37.212Z,1.72
2019-03-08T17:07:14.327Z,2.80
2019-03-08T17:09:50.395Z,2.33
2019-03-08T17:12:29.699Z,2.80
2019-03-08T17:15:22.405Z,2.27
2019-03-08T17:18:00.859Z,2.75
2019-03-08T17:20:49.923Z,2.20
2019-03-08T17:23:44.779Z,2.30
2019-03-08T17:26:31.302Z,2.37
2019-03-08T17:29:08.864Z,2.65
2019-03-08T17:31:43.163Z,2.95
2019-03-08T17:34:32.765Z,1.87
2019-03-08T17:37:17.602Z,2.80
2019-03-08T17:39:52.863Z,2.12
2019-03-08T17:42:37.591Z,2.80
2019-03-08T17:45:27.201Z,2.42
2019-03-08T17:48:22.225Z,2.72
2019-03-08T17:50:58.975Z,2.77
2019-03-08T17:53:37.395Z,4.45
2019-03-08T17:56:13.960Z,2.87
2019-03-08T17:58:55.211Z,3.95
2019-03-08T18:01:41.762Z,3.08
2019-03-08T18:04:27.910Z,2.75
2019-03-08T18:07:13.026Z,2.50
2019-03-08T18:09:59.661Z,4.20
2019-03-08T18:12:47.615Z,3.27
2019-03-08T18:15:21.130Z,2.67
2019-03-08T18:18:14.072Z,3.33
2019-03-08T18:20:48.427Z,3.43
2019-03-08T18:23:44.719Z,3.23
2019-03-08T18:26:25.003Z,4.03
2019-03-08T18:29:02.583Z,3.67
2019-03-08T18:31:58.538Z,4.20
2019-03-08T18:34:48.320Z,2.67
2019-03-08T18:37:53.918Z,3.33
2019-03-08T18:40:41.670Z,3.80
2019-03-08T18:43:34.140Z,3.57
2019-03-08T18:46:26.088Z,2.63
2019-03-08T18:49:08.756Z,2.60
2019-03-08T18:51:55.116Z,2.80
2019-03-08T18:54:44.151Z,3.07
2019-03-08T18:57:35.087Z,4.07
2019-03-08T19:00:24.368Z,3.87
2019-03-08T19:03:09.479Z,3.23
2019-03-08T19:06:14.327Z,5.13
2019-03-08T19:08:56.511Z,3.73
2019-03-08T19:11:42.303Z,3.43
2019-03-08T19:14:27.474Z,2.97
2019-03-08T19:17:12.791Z,3.60
2019-03-08T19:20:18.957Z,2.97
2019-03-08T19:23:07.856Z,2.50
2019-03-08T19:25:52.883Z,3.10
2019-03-08T19:28:37.919Z,4.50
2019-03-08T19:31:24.240Z,2.60
2019-03-08T19:34:10.279Z,2.50
2019-03-08T19:36:59.611Z,3.47
2019-03-08T19:39:48.816Z,3.23
2019-03-08T19:42:41.208Z,4.20
2019-03-08T19:45:18.547Z,4.10
2019-03-08T19:48:10.665Z,4.63
2019-03-08T19:50:56.928Z,5.00
2019-03-08T19:53:52.421Z,4.60
2019-03-08T19:56:41.736Z,3.83
2019-03-08T19:59:19.356Z,3.00
2019-03-08T20:02:04.763Z,4.17
2019-03-08T20:04:50.161Z,4.90
2019-03-08T20:07:41.599Z,4.70
2019-03-08T20:10:28.166Z,3.83
2019-03-08T20:13:15.483Z,3.60
2019-03-08T20:16:02.312Z,3.90
2019-03-08T20:19:08.705Z,4.00
2019-03-08T20:21:55.245Z,5.00
2019-03-08T20:24:53.833Z,3.93
2019-03-08T20:27:40.403Z,4.53
2019-03-08T20:30:36.512Z,3.70
2019-03-08T20:33:29.559Z,3.20
2019-03-08T20:36:33.935Z,4.27
2019-03-08T20:39:27.307Z,3.53
2019-03-08T20:41:59.367Z,5.57
2019-03-08T20:44:39.167Z,4.73
2019-03-08T20:47:09.841Z,4.10
2019-03-08T20:49:36.971Z,4.73
2019-03-08T20:52:03.818Z,4.40
2019-03-08T20:54:31.087Z,4.90
2019-03-08T20:57:00.565Z,5.20
2019-03-08T20:59:27.537Z,4.50
2019-03-08T21:01:54.303Z,4.10
2019-03-08T21:04:22.513Z,4.00
2019-03-08T21:06:51.318Z,7.10
2019-03-08T21:09:18.456Z,3.77
2019-03-08T21:11:46.463Z,5.57
2019-03-08T21:14:14.144Z,5.97
2019-03-08T21:16:40.815Z,5.53
2019-03-08T21:19:08.056Z,4.10
2019-03-08T21:21:35.319Z,5.00
2019-03-08T21:24:02.074Z,5.60
2019-03-08T21:26:30.820Z,5.50
2019-03-08T21:28:58.807Z,5.25
2019-03-08T21:31:26.128Z,3.43
2019-03-08T21:33:59.309Z,5.57
2019-03-08T21:36:26.178Z,4.40
2019-03-08T21:38:53.475Z,3.97
2019-03-08T21:41:20.512Z,5.93
2019-03-08T21:43:47.544Z,4.20
2019-03-08T21:46:14.184Z,3.80
2019-03-08T21:48:41.960Z,5.87
2019-03-08T21:51:09.195Z,4.70
2019-03-08T21:53:36.265Z,6.80
2019-03-08T21:56:02.929Z,4.10
2019-03-08T21:58:29.779Z,4.33
2019-03-08T22:00:56.408Z,4.53
2019-03-08T22:03:23.447Z,5.40
2019-03-08T22:05:50.136Z,4.23
2019-03-08T22:08:18.013Z,5.03
2019-03-08T22:10:52.788Z,5.53
2019-03-08T22:13:19.910Z,5.13
2019-03-08T22:15:46.944Z,4.70
2019-03-08T22:18:15.003Z,4.40
2019-03-08T22:20:41.638Z,4.60
2019-03-08T22:23:10.035Z,3.80
2019-03-08T22:25:37.750Z,4.77
2019-03-08T22:28:04.740Z,3.75
2019-03-08T22:30:31.683Z,4.47
2019-03-08T22:33:00.133Z,3.87
2019-03-08T22:35:27.417Z,4.37
2019-03-08T22:37:55.286Z,5.33
2019-03-08T22:40:25.716Z,4.17
2019-03-08T22:42:52.983Z,4.10
2019-03-08T22:45:24.823Z,4.77
2019-03-08T22:47:53.837Z,3.62
2019-03-08T22:50:24.863Z,5.07
2019-03-08T22:52:51.532Z,3.20
2019-03-08T22:55:19.323Z,3.92
2019-03-08T22:57:47.483Z,3.70
2019-03-08T23:00:26.976Z,4.90
2019-03-08T23:02:57.743Z,3.60
2019-03-08T23:05:26.085Z,3.70
2019-03-08T23:07:52.827Z,4.45
2019-03-08T23:10:20.935Z,3.17
2019-03-08T23:12:48.567Z,4.15
2019-03-08T23:15:15.802Z,2.80
2019-03-08T23:17:42.879Z,3.25
2019-03-08T23:20:10.928Z,4.47
2019-03-08T23:22:37.653Z,4.20
2019-03-08T23:25:04.927Z,2.83
2019-03-08T23:27:45.475Z,4.67
2019-03-08T23:30:22.516Z,3.63
2019-03-08T23:32:52.075Z,4.10
2019-03-08T23:35:21.174Z,3.90
2019-03-08T23:37:49.243Z,3.90
2019-03-08T23:40:16.390Z,4.50
2019-03-08T23:42:43.853Z,5.03
2019-03-08T23:45:10.966Z,6.03
2019-03-08T23:47:38.486Z,4.63
2019-03-08T23:50:05.923Z,4.97
2019-03-08T23:52:32.884Z,3.63
2019-03-08T23:55:00.229Z,3.97
2019-03-08T23:57:27.968Z,3.67
2019-03-08T23:59:55.844Z,3.17
